createdAt,value
2019-04-30T00:02:07.279Z,15.60
2019-04-30T00:04:41.474Z,15.50
2019-04-30T00:07:15.529Z,15.50
2019-04-30T00:09:44.996Z,15.50
2019-04-30T00:12:16.442Z,15.50
2019-04-30T00:14:50.285Z,15.50
2019-04-30T00:17:21.122Z,15.60
2019-04-30T00:19:55.831Z,15.60
2019-04-30T00:22:33.401Z,15.60
2019-04-30T00:24:56.206Z,15.60
2019-04-30T00:27:30.163Z,15.60
2019-04-30T00:30:00.434Z,15.60
2019-04-30T00:32:31.074Z,15.60
2019-04-30T00:35:01.484Z,15.60
2019-04-30T00:37:31.910Z,15.60
2019-04-30T00:40:02.499Z,15.60
2019-04-30T00:42:33.171Z,15.70
2019-04-30T00:45:06.707Z,15.70
2019-04-30T00:47:39.597Z,15.70
2019-04-30T00:50:08.169Z,15.70
2019-04-30T00:52:38.779Z,15.80
2019-04-30T00:55:09.590Z,15.70
2019-04-30T00:57:43.790Z,15.70
2019-04-30T01:00:17.790Z,15.70
2019-04-30T01:02:53.380Z,15.70
2019-04-30T01:05:25.503Z,15.70
2019-04-30T01:07:55.897Z,15.70
2019-04-30T01:10:28.448Z,15.70
2019-04-30T01:12:59.826Z,15.70
2019-04-30T01:15:31.022Z,15.70
2019-04-30T01:18:01.574Z,15.70
2019-04-30T01:20:32.899Z,15.80
2019-04-30T01:23:09.881Z,15.80
2019-04-30T01:25:35.894Z,15.80
2019-04-30T01:28:08.368Z,15.80
2019-04-30T01:30:39.383Z,15.80
2019-04-30T01:33:09.869Z,15.80
2019-04-30T01:35:40.581Z,15.80
2019-04-30T01:38:12.856Z,15.80
2019-04-30T01:40:47.512Z,15.80
2019-04-30T01:43:23.532Z,15.80
2019-04-30T01:45:49.392Z,15.90
2019-04-30T01:48:20.390Z,15.90
2019-04-30T01:50:50.989Z,15.90
2019-04-30T01:53:21.582Z,15.90
2019-04-30T01:56:19.092Z,15.80
2019-04-30T01:58:59.528Z,15.80
2019-04-30T02:01:32.421Z,15.80
2019-04-30T02:04:02.994Z,15.80
2019-04-30T02:06:33.341Z,15.90
2019-04-30T02:09:05.558Z,15.80
2019-04-30T02:11:35.960Z,15.80
2019-04-30T02:14:06.558Z,15.80
2019-04-30T02:16:37.153Z,15.80
2019-04-30T02:19:09.144Z,15.80
2019-04-30T02:21:39.917Z,15.80
2019-04-30T02:24:11.196Z,15.80
2019-04-30T02:26:41.799Z,15.90
2019-04-30T02:29:12.430Z,15.80
2019-04-30T02:31:44.240Z,15.80
2019-04-30T02:34:30.087Z,15.80
2019-04-30T02:37:10.166Z,15.80
2019-04-30T02:39:40.781Z,15.80
2019-04-30T02:42:13.454Z,15.80
2019-04-30T02:44:46.122Z,15.70
2019-04-30T02:47:20.246Z,15.70
2019-04-30T02:50:10.162Z,15.70
2019-04-30T02:52:30.537Z,15.70
2019-04-30T02:55:03.407Z,15.70
2019-04-30T02:57:33.846Z,15.60
2019-04-30T03:00:20.363Z,15.70
2019-04-30T03:02:51.147Z,15.70
2019-04-30T03:05:21.709Z,15.60
2019-04-30T03:07:53.399Z,15.60
2019-04-30T03:10:24.104Z,15.60
2019-04-30T03:12:55.335Z,15.60
2019-04-30T03:15:29.270Z,15.60
2019-04-30T03:18:09.909Z,15.60
2019-04-30T03:20:59.833Z,15.70
2019-04-30T03:23:30.152Z,15.70
2019-04-30T03:26:00.579Z,15.70
2019-04-30T03:28:30.958Z,15.80
2019-04-30T03:31:04.568Z,15.80
2019-04-30T03:33:33.453Z,15.80
2019-04-30T03:36:04.552Z,15.80
2019-04-30T03:38:34.909Z,15.80
2019-04-30T03:41:05.561Z,15.80
2019-04-30T03:43:36.117Z,15.80
2019-04-30T03:46:09.929Z,15.70
2019-04-30T03:48:40.298Z,15.70
2019-04-30T03:51:10.967Z,15.70
2019-04-30T03:53:42.929Z,15.70
2019-04-30T03:56:13.518Z,15.70
2019-04-30T03:58:44.117Z,15.60
2019-04-30T04:01:41.096Z,15.50
2019-04-30T04:04:31.880Z,15.50
2019-04-30T04:07:39.497Z,15.50
2019-04-30T04:10:26.321Z,15.50
2019-04-30T04:12:59.584Z,15.50
2019-04-30T04:15:29.913Z,15.50
2019-04-30T04:18:00.604Z,15.50
2019-04-30T04:20:31.159Z,15.60
2019-04-30T04:23:01.774Z,15.60
2019-04-30T04:25:32.591Z,15.60
2019-04-30T04:28:03.688Z,15.60
2019-04-30T04:30:34.262Z,15.60
2019-04-30T04:33:06.913Z,15.60
2019-04-30T04:35:39.187Z,15.60
2019-04-30T04:38:12.300Z,15.60
2019-04-30T04:40:41.774Z,15.60
2019-04-30T04:43:13.087Z,15.60
2019-04-30T04:45:43.960Z,15.60
2019-04-30T04:48:14.581Z,15.70
2019-04-30T04:50:46.527Z,15.70
2019-04-30T04:53:19.307Z,15.70
2019-04-30T04:55:51.511Z,15.60
2019-04-30T04:58:23.120Z,15.60
2019-04-30T05:00:54.009Z,15.50
2019-04-30T05:03:36.193Z,15.50
2019-04-30T05:06:11.350Z,15.50
2019-04-30T05:08:39.685Z,15.50
2019-04-30T05:11:11.688Z,15.60
2019-04-30T05:13:44.266Z,15.60
2019-04-30T05:16:15.908Z,15.60
2019-04-30T05:18:46.387Z,15.60
2019-04-30T05:21:18.938Z,15.60
2019-04-30T05:23:50.722Z,15.50
2019-04-30T05:26:24.678Z,15.60
2019-04-30T05:28:55.290Z,15.60
2019-04-30T05:31:25.790Z,15.60
2019-04-30T05:33:58.572Z,15.60
2019-04-30T05:36:29.215Z,15.70
2019-04-30T05:38:59.882Z,15.70
2019-04-30T05:41:30.478Z,15.80
2019-04-30T05:44:02.054Z,15.70
2019-04-30T05:46:32.776Z,15.70
2019-04-30T05:49:03.275Z,15.70
2019-04-30T05:51:33.790Z,15.70
2019-04-30T05:54:04.913Z,15.70
2019-04-30T05:56:35.421Z,15.70
2019-04-30T05:59:05.867Z,15.80
2019-04-30T06:01:36.206Z,15.80
2019-04-30T06:04:06.678Z,15.80
2019-04-30T06:06:38.883Z,15.80
2019-04-30T06:09:33.228Z,15.90
2019-04-30T06:12:25.649Z,15.90
2019-04-30T06:15:12.534Z,15.90
2019-04-30T06:17:44.140Z,15.90
2019-04-30T06:20:18.347Z,15.90
2019-04-30T06:22:51.866Z,15.90
2019-04-30T06:25:30.643Z,16.00
2019-04-30T06:27:52.143Z,16.10
2019-04-30T06:30:22.917Z,16.20
2019-04-30T06:32:53.647Z,16.10
2019-04-30T06:35:24.663Z,16.30
2019-04-30T06:37:55.225Z,16.30
2019-04-30T06:40:26.673Z,16.40
2019-04-30T06:43:00.454Z,16.40
2019-04-30T06:45:30.590Z,16.50
2019-04-30T06:48:04.196Z,16.50
2019-04-30T06:50:34.708Z,16.50
2019-04-30T06:53:05.381Z,16.40
2019-04-30T06:55:35.893Z,16.40
2019-04-30T06:58:14.582Z,16.50
2019-04-30T07:00:40.095Z,16.60
2019-04-30T07:03:10.882Z,16.60
2019-04-30T07:05:41.291Z,16.60
2019-04-30T07:08:37.337Z,16.60
2019-04-30T07:11:19.561Z,16.70
2019-04-30T07:13:53.587Z,16.80
2019-04-30T07:16:24.113Z,16.80
2019-04-30T07:18:54.565Z,16.90
2019-04-30T07:21:24.860Z,16.80
2019-04-30T07:23:55.353Z,16.80
2019-04-30T07:26:25.876Z,16.80
2019-04-30T07:28:56.423Z,16.90
2019-04-30T07:31:29.335Z,17.00
2019-04-30T07:33:59.548Z,17.00
2019-04-30T07:36:45.891Z,17.10
2019-04-30T07:39:02.301Z,17.00
2019-04-30T07:41:32.909Z,17.10
2019-04-30T07:44:03.566Z,17.20
2019-04-30T07:46:45.183Z,17.40
2019-04-30T07:49:15.525Z,17.50
2019-04-30T07:51:46.478Z,17.60
2019-04-30T07:54:18.928Z,17.70
2019-04-30T07:56:50.767Z,17.70
2019-04-30T07:59:21.216Z,17.70
2019-04-30T08:02:04.082Z,17.70
2019-04-30T08:04:41.661Z,17.90
2019-04-30T08:07:11.993Z,18.00
2019-04-30T08:09:42.622Z,18.30
2019-04-30T08:12:22.277Z,18.30
2019-04-30T08:14:45.287Z,18.50
2019-04-30T08:17:15.791Z,18.60
2019-04-30T08:19:46.190Z,18.80
2019-04-30T08:22:16.730Z,19.10
2019-04-30T08:24:49.012Z,19.20
2019-04-30T08:27:19.630Z,19.30
2019-04-30T08:29:50.581Z,19.40
2019-04-30T08:32:22.030Z,19.20
2019-04-30T08:34:52.347Z,19.30
2019-04-30T08:37:23.129Z,19.30
2019-04-30T08:39:53.783Z,19.20
2019-04-30T08:42:31.718Z,19.10
2019-04-30T08:44:58.459Z,18.90
2019-04-30T08:47:29.205Z,18.80
2019-04-30T08:50:02.702Z,18.70
2019-04-30T08:52:31.771Z,18.60
2019-04-30T08:55:13.226Z,18.40
2019-04-30T08:57:34.451Z,18.40
2019-04-30T09:00:06.393Z,18.40
2019-04-30T09:02:38.940Z,18.50
2019-04-30T09:05:18.448Z,18.60
2019-04-30T09:07:48.739Z,18.80
2019-04-30T09:10:19.545Z,19.20
2019-04-30T09:12:52.043Z,19.70
2019-04-30T09:15:22.739Z,20.00
2019-04-30T09:18:03.271Z,20.30
2019-04-30T09:20:25.584Z,20.60
2019-04-30T09:22:56.024Z,20.90
2019-04-30T09:25:28.542Z,21.10
2019-04-30T09:27:58.948Z,20.70
2019-04-30T09:30:29.939Z,20.50
2019-04-30T09:33:00.485Z,20.10
2019-04-30T09:35:32.214Z,19.80
2019-04-30T09:38:02.699Z,19.80
2019-04-30T09:40:33.117Z,20.00
2019-04-30T09:43:08.620Z,20.20
2019-04-30T09:45:40.709Z,20.40
2019-04-30T09:48:11.156Z,20.20
2019-04-30T09:50:41.670Z,20.30
2019-04-30T09:53:12.516Z,20.20
2019-04-30T09:55:43.001Z,20.20
2019-04-30T09:58:16.989Z,20.20
2019-04-30T10:00:45.703Z,20.50
2019-04-30T10:03:16.923Z,20.70
2019-04-30T10:05:49.151Z,20.90
2019-04-30T10:08:21.002Z,21.00
2019-04-30T10:11:13.642Z,21.00
2019-04-30T10:13:44.113Z,21.00
2019-04-30T10:16:36.064Z,21.00
2019-04-30T10:19:14.908Z,21.10
2019-04-30T10:21:44.664Z,21.10
2019-04-30T10:24:15.881Z,21.00
2019-04-30T10:26:46.681Z,20.80
2019-04-30T10:29:18.114Z,20.60
2019-04-30T10:31:48.956Z,20.60
2019-04-30T10:34:19.621Z,20.80
2019-04-30T10:36:50.393Z,20.90
2019-04-30T10:39:21.724Z,20.90
2019-04-30T10:41:52.400Z,20.90
2019-04-30T10:44:22.851Z,20.60
2019-04-30T10:46:53.949Z,20.40
2019-04-30T10:49:24.317Z,20.40
2019-04-30T10:51:54.849Z,20.30
2019-04-30T10:54:26.494Z,20.30
2019-04-30T10:56:59.150Z,20.30
2019-04-30T10:59:29.965Z,20.30
2019-04-30T11:02:00.581Z,20.40
2019-04-30T11:04:31.204Z,20.70
2019-04-30T11:07:01.874Z,20.70
2019-04-30T11:09:35.428Z,20.60
2019-04-30T11:12:06.508Z,20.40
2019-04-30T11:14:36.912Z,20.30
2019-04-30T11:17:09.702Z,20.40
2019-04-30T11:19:40.653Z,20.40
2019-04-30T11:22:11.389Z,20.50
2019-04-30T11:24:56.479Z,20.50
2019-04-30T11:27:14.932Z,20.60
2019-04-30T11:29:45.789Z,20.60
2019-04-30T11:32:22.420Z,20.60
2019-04-30T11:34:53.374Z,20.60
2019-04-30T11:37:25.466Z,20.90
2019-04-30T11:39:56.287Z,21.10
2019-04-30T11:42:26.808Z,21.10
2019-04-30T11:44:58.629Z,21.00
2019-04-30T11:47:34.701Z,20.90
2019-04-30T11:50:08.134Z,21.00
2019-04-30T11:52:40.354Z,21.00
2019-04-30T11:55:13.141Z,20.80
2019-04-30T11:58:02.905Z,20.80
2019-04-30T12:00:36.132Z,20.90
2019-04-30T12:03:09.028Z,20.90
2019-04-30T12:05:40.680Z,20.90
2019-04-30T12:08:22.034Z,21.10
2019-04-30T12:10:59.319Z,21.00
2019-04-30T12:13:31.161Z,20.80
2019-04-30T12:16:03.631Z,20.80
2019-04-30T12:18:34.189Z,20.80
2019-04-30T12:21:05.259Z,20.80
2019-04-30T12:23:35.782Z,20.70
2019-04-30T12:26:06.358Z,20.80
2019-04-30T12:28:38.617Z,20.90
2019-04-30T12:31:10.549Z,20.90
2019-04-30T12:33:41.728Z,20.80
2019-04-30T12:36:12.229Z,21.00
2019-04-30T12:38:42.699Z,21.20
2019-04-30T12:41:15.338Z,21.20
2019-04-30T12:43:46.030Z,21.10
2019-04-30T12:46:18.955Z,21.10
2019-04-30T12:48:59.464Z,21.20
2019-04-30T12:51:48.863Z,21.10
2019-04-30T12:54:38.180Z,21.10
2019-04-30T12:57:30.974Z,21.00
2019-04-30T13:00:01.763Z,21.00
2019-04-30T13:02:33.049Z,20.70
2019-04-30T13:05:03.708Z,20.50
2019-04-30T13:07:34.474Z,20.40
2019-04-30T13:10:06.464Z,20.50
2019-04-30T13:12:38.197Z,20.50
2019-04-30T13:15:10.568Z,20.70
2019-04-30T13:17:41.141Z,20.70
2019-04-30T13:20:18.569Z,20.80
2019-04-30T13:22:44.354Z,20.80
2019-04-30T13:25:27.088Z,21.10
2019-04-30T13:27:51.387Z,21.20
2019-04-30T13:30:24.441Z,21.20
2019-04-30T13:33:20.257Z,21.20
2019-04-30T13:35:48.967Z,21.10
2019-04-30T13:38:45.182Z,21.20
2019-04-30T13:41:33.359Z,21.30
2019-04-30T13:44:12.060Z,21.20
2019-04-30T13:46:42.870Z,21.10
2019-04-30T13:49:13.334Z,20.90
2019-04-30T13:51:43.777Z,21.00
2019-04-30T13:54:15.881Z,21.00
2019-04-30T13:56:46.281Z,20.90
2019-04-30T13:59:16.827Z,21.00
2019-04-30T14:01:48.901Z,21.10
2019-04-30T14:04:44.987Z,21.20
2019-04-30T14:07:40.341Z,21.30
2019-04-30T14:10:11.981Z,21.50
2019-04-30T14:12:48.117Z,21.60
2019-04-30T14:15:19.269Z,21.50
2019-04-30T14:17:51.278Z,21.20
2019-04-30T14:20:21.826Z,21.00
2019-04-30T14:22:52.214Z,20.90
2019-04-30T14:25:22.834Z,20.70
2019-04-30T14:27:54.820Z,20.60
2019-04-30T14:30:26.121Z,20.80
2019-04-30T14:32:56.628Z,20.80
2019-04-30T14:35:28.675Z,20.80
2019-04-30T14:37:59.687Z,21.00
2019-04-30T14:40:31.222Z,21.10
2019-04-30T14:43:16.345Z,21.30
2019-04-30T14:46:05.648Z,21.00
2019-04-30T14:48:43.954Z,21.00
2019-04-30T14:51:14.908Z,21.10
2019-04-30T14:54:12.600Z,21.40
2019-04-30T14:57:02.116Z,21.70
2019-04-30T15:00:04.091Z,21.80
2019-04-30T15:02:38.053Z,21.80
2019-04-30T15:05:09.119Z,21.50
2019-04-30T15:07:43.770Z,21.30
2019-04-30T15:10:15.796Z,21.20
2019-04-30T15:12:46.480Z,21.20
2019-04-30T15:15:19.074Z,21.20
2019-04-30T15:17:49.431Z,21.10
2019-04-30T15:20:20.405Z,20.90
2019-04-30T15:23:01.303Z,20.80
2019-04-30T15:25:34.096Z,20.50
2019-04-30T15:28:04.456Z,20.10
2019-04-30T15:30:35.182Z,19.90
2019-04-30T15:33:27.462Z,19.60
2019-04-30T15:35:59.932Z,19.20
2019-04-30T15:38:49.511Z,19.30
2019-04-30T15:41:20.640Z,19.30
2019-04-30T15:43:51.121Z,19.20
2019-04-30T15:46:21.708Z,19.00
2019-04-30T15:48:55.148Z,18.80
2019-04-30T15:51:25.765Z,18.60
2019-04-30T15:53:56.364Z,18.40
2019-04-30T15:56:35.299Z,18.20
2019-04-30T15:59:30.425Z,18.10
2019-04-30T16:02:21.036Z,17.90
2019-04-30T16:05:19.716Z,17.90
2019-04-30T16:08:00.089Z,17.80
2019-04-30T16:10:52.389Z,17.90
2019-04-30T16:13:25.290Z,17.80
2019-04-30T16:15:55.774Z,17.70
2019-04-30T16:18:30.379Z,17.60
2019-04-30T16:21:01.535Z,17.60
2019-04-30T16:23:32.565Z,17.60
2019-04-30T16:26:03.037Z,17.60
2019-04-30T16:28:33.468Z,17.50
2019-04-30T16:31:03.996Z,17.50
2019-04-30T16:33:35.014Z,17.50
2019-04-30T16:36:05.456Z,17.50
2019-04-30T16:38:35.858Z,17.50
2019-04-30T16:41:08.775Z,17.40
2019-04-30T16:43:39.121Z,17.30
2019-04-30T16:46:09.664Z,17.20
2019-04-30T16:48:40.257Z,17.30
2019-04-30T16:51:10.764Z,17.30
2019-04-30T16:53:41.323Z,17.30
2019-04-30T16:56:11.952Z,17.40
2019-04-30T16:59:01.566Z,17.40
2019-04-30T17:01:34.515Z,17.30
2019-04-30T17:04:11.291Z,17.30
2019-04-30T17:06:45.434Z,17.30
2019-04-30T17:09:22.696Z,17.40
2019-04-30T17:12:03.615Z,17.40
2019-04-30T17:14:34.881Z,17.30
2019-04-30T17:17:05.501Z,17.30
2019-04-30T17:19:36.005Z,17.30
2019-04-30T17:22:06.699Z,17.40
2019-04-30T17:24:39.348Z,17.30
2019-04-30T17:27:19.341Z,17.30
2019-04-30T17:29:43.254Z,17.30
2019-04-30T17:32:13.772Z,17.30
2019-04-30T17:34:44.388Z,17.30
2019-04-30T17:37:15.520Z,17.20
2019-04-30T17:39:45.966Z,17.20
2019-04-30T17:42:16.424Z,17.10
2019-04-30T17:44:56.330Z,17.10
2019-04-30T17:47:19.612Z,17.10
2019-04-30T17:49:50.851Z,17.10
2019-04-30T17:52:23.709Z,17.00
2019-04-30T17:54:54.248Z,17.00
2019-04-30T17:57:32.212Z,17.10
2019-04-30T17:59:59.089Z,17.20
2019-04-30T18:02:30.960Z,17.20
2019-04-30T18:05:01.368Z,17.20
2019-04-30T18:07:32.107Z,17.10
2019-04-30T18:10:02.918Z,17.10
2019-04-30T18:12:33.589Z,17.00
2019-04-30T18:15:04.972Z,17.00
2019-04-30T18:17:35.432Z,17.00
2019-04-30T18:20:11.880Z,17.00
2019-04-30T18:22:59.250Z,17.00
2019-04-30T18:25:50.556Z,17.00
2019-04-30T18:28:21.043Z,17.00
2019-04-30T18:30:51.712Z,16.90
2019-04-30T18:33:22.186Z,16.90
2019-04-30T18:35:53.339Z,16.90
2019-04-30T18:38:24.036Z,16.90
2019-04-30T18:40:55.117Z,16.80
2019-04-30T18:43:25.562Z,16.80
2019-04-30T18:45:58.203Z,16.80
2019-04-30T18:48:29.838Z,16.70
2019-04-30T18:51:00.522Z,16.60
2019-04-30T18:53:32.606Z,16.70
2019-04-30T18:56:03.185Z,16.60
2019-04-30T18:58:39.956Z,16.60
2019-04-30T19:01:06.891Z,16.60
2019-04-30T19:03:39.028Z,16.60
2019-04-30T19:06:22.875Z,16.60
2019-04-30T19:08:58.696Z,16.60
2019-04-30T19:11:37.211Z,16.60
2019-04-30T19:17:43.359Z,16.70
2019-04-30T19:20:23.827Z,16.70
2019-04-30T19:22:55.321Z,16.70
2019-04-30T19:25:28.928Z,16.70
2019-04-30T19:28:11.620Z,16.70
2019-04-30T19:30:33.319Z,16.70
2019-04-30T19:33:03.722Z,16.70
2019-04-30T19:35:34.707Z,16.60
2019-04-30T19:38:09.202Z,16.70
2019-04-30T19:40:40.500Z,16.70
2019-04-30T19:43:17.668Z,16.70
2019-04-30T19:45:51.220Z,16.80
2019-04-30T19:48:22.995Z,16.70
2019-04-30T19:50:54.544Z,16.70
2019-04-30T19:53:27.513Z,16.70
2019-04-30T19:55:57.987Z,16.70
2019-04-30T19:58:48.046Z,16.70
2019-04-30T20:01:05.517Z,16.70
2019-04-30T20:03:58.768Z,16.80
2019-04-30T20:06:51.427Z,16.60
2019-04-30T20:10:03.949Z,16.60
2019-04-30T20:12:33.059Z,16.60
2019-04-30T20:15:15.930Z,16.60
2019-04-30T20:17:38.687Z,16.60
2019-04-30T20:20:09.540Z,16.70
2019-04-30T20:22:40.808Z,16.70
2019-04-30T20:25:12.484Z,16.70
2019-04-30T20:27:44.492Z,16.70
2019-04-30T20:30:15.761Z,16.80
2019-04-30T20:32:49.053Z,16.70
2019-04-30T20:35:22.759Z,16.70
2019-04-30T20:38:11.504Z,16.60
2019-04-30T20:40:57.042Z,16.70
2019-04-30T20:43:18.662Z,16.70
2019-04-30T20:45:50.023Z,16.70
2019-04-30T20:48:20.331Z,16.60
2019-04-30T20:50:51.500Z,16.60
2019-04-30T20:53:22.144Z,16.60
2019-04-30T20:55:53.916Z,16.60
2019-04-30T20:58:25.276Z,16.60
2019-04-30T21:01:04.128Z,16.60
2019-04-30T21:03:29.712Z,16.70
2019-04-30T21:06:00.774Z,16.70
2019-04-30T21:08:31.860Z,16.60
2019-04-30T21:11:02.379Z,16.60
2019-04-30T21:13:33.228Z,16.60
2019-04-30T21:16:03.831Z,16.60
2019-04-30T21:18:34.350Z,16.50
2019-04-30T21:21:04.774Z,16.50
2019-04-30T21:23:35.481Z,16.50
2019-04-30T21:26:06.094Z,16.40
2019-04-30T21:28:36.754Z,16.40
2019-04-30T21:31:25.816Z,16.30
2019-04-30T21:34:01.326Z,16.20
2019-04-30T21:36:31.947Z,16.20
2019-04-30T21:39:02.911Z,16.30
2019-04-30T21:41:34.489Z,16.20
2019-04-30T21:44:05.226Z,16.20
2019-04-30T21:46:37.579Z,16.20
2019-04-30T21:49:08.892Z,16.30
2019-04-30T21:51:40.140Z,16.20
2019-04-30T21:54:10.990Z,16.30
2019-04-30T21:56:41.767Z,16.20
2019-04-30T21:59:23.830Z,16.20
2019-04-30T22:01:44.457Z,16.10
2019-04-30T22:04:15.213Z,16.10
2019-04-30T22:06:45.768Z,16.10
2019-04-30T22:09:19.406Z,16.10
2019-04-30T22:11:50.299Z,16.10
2019-04-30T22:14:20.975Z,16.10
2019-04-30T22:16:51.836Z,16.10
2019-04-30T22:19:22.593Z,16.10
2019-04-30T22:21:53.194Z,16.10
2019-04-30T22:24:23.830Z,16.10
2019-04-30T22:26:54.632Z,16.10
2019-04-30T22:29:37.067Z,16.10
2019-04-30T22:32:09.740Z,16.10
2019-04-30T22:34:43.115Z,16.10
2019-04-30T22:37:14.071Z,16.10
2019-04-30T22:40:09.344Z,16.10
2019-04-30T22:42:41.579Z,16.10
2019-04-30T22:45:27.812Z,16.10
2019-04-30T22:47:59.364Z,16.10
2019-04-30T22:50:30.667Z,16.10
2019-04-30T22:53:05.140Z,16.10
2019-04-30T22:55:38.380Z,16.10
2019-04-30T22:58:09.282Z,16.10
2019-04-30T23:00:50.047Z,16.20
2019-04-30T23:03:41.202Z,16.10
2019-04-30T23:06:03.383Z,16.10
2019-04-30T23:08:34.112Z,16.10
2019-04-30T23:11:07.783Z,16.10
2019-04-30T23:13:38.553Z,16.10
2019-04-30T23:16:12.720Z,16.00
2019-04-30T23:18:43.553Z,16.00
2019-04-30T23:21:14.620Z,16.00
2019-04-30T23:23:47.587Z,16.00
2019-04-30T23:26:18.758Z,16.00
2019-04-30T23:28:49.497Z,16.00
2019-04-30T23:31:21.093Z,16.00
2019-04-30T23:33:51.803Z,16.00
2019-04-30T23:36:22.817Z,16.10
2019-04-30T23:38:53.845Z,16.00
2019-04-30T23:41:24.636Z,16.10
2019-04-30T23:43:55.154Z,16.10
2019-04-30T23:46:25.697Z,16.10
2019-04-30T23:48:56.510Z,16.10
2019-04-30T23:51:27.082Z,16.10
2019-04-30T23:53:57.621Z,16.10
2019-04-30T23:56:28.265Z,16.10
2019-04-30T23:58:58.773Z,16.10
